States of Jersey

Home Log in

METAR EGJJ 282020Z 20012KT 9999 -RA NSC 12/08 Q1023 NOSIG

METAR EGJB 282050Z 19011KT 9999 FEW040 11/08 Q1022

METAR LFRD 282100Z AUTO 19008KT CAVOK 12/07 Q1024 NOSIG

METAR LFRC 282100Z AUTO 19015KT CAVOK 12/07 Q1023